sensor_id;sensor_type;location;lat;lon;timestamp;pressure;altitude;pressure_sealevel;temperature;humidity
72612;BME280;60655;52.182;4.474;2023-04-28T00:01:18;101316.28;;;10.65;57.23
72612;BME280;60655;52.182;4.474;2023-04-28T00:03:19;101303.81;;;10.65;56.88
72612;BME280;60655;52.182;4.474;2023-04-28T00:05:20;101310.16;;;10.64;57.46
72612;BME280;60655;52.182;4.474;2023-04-28T00:07:23;101301.13;;;10.52;57.49
72612;BME280;60655;52.182;4.474;2023-04-28T00:09:23;101292.75;;;10.55;57.34
72612;BME280;60655;52.182;4.474;2023-04-28T00:11:25;101282.75;;;10.51;58.26
72612;BME280;60655;52.182;4.474;2023-04-28T00:13:26;101277.44;;;10.44;57.72
72612;BME280;60655;52.182;4.474;2023-04-28T00:15:27;101279.25;;;10.43;58.29
72612;BME280;60655;52.182;4.474;2023-04-28T00:17:28;101279.25;;;10.43;57.60
72612;BME280;60655;52.182;4.474;2023-04-28T00:19:29;101286.03;;;10.39;57.94
72612;BME280;60655;52.182;4.474;2023-04-28T00:21:30;101274.59;;;10.39;59.60
72612;BME280;60655;52.182;4.474;2023-04-28T00:23:31;101273.78;;;10.38;59.03
72612;BME280;60655;52.182;4.474;2023-04-28T00:25:32;101272.94;;;10.44;58.37
72612;BME280;60655;52.182;4.474;2023-04-28T00:27:33;101266.63;;;10.39;58.23
72612;BME280;60655;52.182;4.474;2023-04-28T00:29:35;101269.06;;;10.34;58.26
72612;BME280;60655;52.182;4.474;2023-04-28T00:31:36;101250.69;;;10.32;57.95
72612;BME280;60655;52.182;4.474;2023-04-28T00:33:38;101256.78;;;10.26;58.67
72612;BME280;60655;52.182;4.474;2023-04-28T00:35:40;101250.88;;;10.31;59.35
72612;BME280;60655;52.182;4.474;2023-04-28T00:37:42;101244.31;;;10.20;59.90
72612;BME280;60655;52.182;4.474;2023-04-28T00:39:42;101241.06;;;10.31;59.21
72612;BME280;60655;52.182;4.474;2023-04-28T00:41:46;101235.56;;;10.26;59.26
72612;BME280;60655;52.182;4.474;2023-04-28T00:43:48;101234.31;;;10.22;58.90
72612;BME280;60655;52.182;4.474;2023-04-28T00:45:50;101225.97;;;10.25;58.94
72612;BME280;60655;52.182;4.474;2023-04-28T00:47:51;101227.75;;;10.18;58.95
72612;BME280;60655;52.182;4.474;2023-04-28T00:49:52;101229.84;;;10.23;59.22
72612;BME280;60655;52.182;4.474;2023-04-28T00:51:55;101223.25;;;10.19;59.50
72612;BME280;60655;52.182;4.474;2023-04-28T00:53:57;101231.47;;;10.30;59.27
72612;BME280;60655;52.182;4.474;2023-04-28T00:55:58;101220.66;;;10.25;58.99
72612;BME280;60655;52.182;4.474;2023-04-28T00:57:59;101218.00;;;10.25;59.21
72612;BME280;60655;52.182;4.474;2023-04-28T01:00:01;101213.91;;;10.29;59.48
72612;BME280;60655;52.182;4.474;2023-04-28T01:02:02;101215.53;;;10.24;59.58
72612;BME280;60655;52.182;4.474;2023-04-28T01:04:03;101214.09;;;10.21;60.24
72612;BME280;60655;52.182;4.474;2023-04-28T01:06:04;101205.94;;;10.23;60.57
72612;BME280;60655;52.182;4.474;2023-04-28T01:08:06;101207.16;;;10.33;60.42
72612;BME280;60655;52.182;4.474;2023-04-28T01:10:07;101212.06;;;10.23;59.83
72612;BME280;60655;52.182;4.474;2023-04-28T01:12:08;101207.97;;;10.21;60.64
72612;BME280;60655;52.182;4.474;2023-04-28T01:14:09;101202.47;;;10.29;60.96
72612;BME280;60655;52.182;4.474;2023-04-28T01:16:10;101201.25;;;10.25;61.35
72612;BME280;60655;52.182;4.474;2023-04-28T01:18:11;101190.22;;;10.28;61.49
72612;BME280;60655;52.182;4.474;2023-04-28T01:20:13;101198.78;;;10.30;60.51
72612;BME280;60655;52.182;4.474;2023-04-28T01:22:14;101200.22;;;10.19;60.58
72612;BME280;60655;52.182;4.474;2023-04-28T01:24:17;101190.41;;;10.20;61.00
72612;BME280;60655;52.182;4.474;2023-04-28T01:26:17;101195.06;;;10.18;60.67
72612;BME280;60655;52.182;4.474;2023-04-28T01:28:18;101184.69;;;10.23;60.48
72612;BME280;60655;52.182;4.474;2023-04-28T01:30:19;101179.78;;;10.20;60.31
72612;BME280;60655;52.182;4.474;2023-04-28T01:32:20;101175.88;;;10.15;60.74
72612;BME280;60655;52.182;4.474;2023-04-28T01:34:21;101171.59;;;10.14;60.00
72612;BME280;60655;52.182;4.474;2023-04-28T01:36:22;101169.97;;;10.00;59.58
72612;BME280;60655;52.182;4.474;2023-04-28T01:38:23;101172.00;;;9.98;59.23
72612;BME280;60655;52.182;4.474;2023-04-28T01:40:24;101163.84;;;10.00;60.46
72612;BME280;60655;52.182;4.474;2023-04-28T01:42:25;101163.66;;;10.01;60.15
72612;BME280;60655;52.182;4.474;2023-04-28T01:44:26;101162.81;;;10.01;60.21
72612;BME280;60655;52.182;4.474;2023-04-28T01:46:27;101167.53;;;10.05;60.15
72612;BME280;60655;52.182;4.474;2023-04-28T01:48:28;101174.28;;;10.08;59.71
72612;BME280;60655;52.182;4.474;2023-04-28T01:50:29;101166.31;;;10.08;59.45
72612;BME280;60655;52.182;4.474;2023-04-28T01:52:30;101158.34;;;10.01;59.85
72612;BME280;60655;52.182;4.474;2023-04-28T01:54:31;101146.28;;;9.99;60.44
72612;BME280;60655;52.182;4.474;2023-04-28T01:56:32;101144.06;;;10.09;59.82
72612;BME280;60655;52.182;4.474;2023-04-28T01:58:33;101144.88;;;10.09;60.07
72612;BME280;60655;52.182;4.474;2023-04-28T02:00:34;101147.69;;;10.14;59.29
72612;BME280;60655;52.182;4.474;2023-04-28T02:02:35;101142.22;;;10.03;60.55
72612;BME280;60655;52.182;4.474;2023-04-28T02:04:37;101143.44;;;10.00;59.73
72612;BME280;60655;52.182;4.474;2023-04-28T02:06:38;101139.75;;;10.01;59.64
72612;BME280;60655;52.182;4.474;2023-04-28T02:08:39;101126.47;;;9.88;59.26
72612;BME280;60655;52.182;4.474;2023-04-28T02:10:40;101124.03;;;9.93;59.88
72612;BME280;60655;52.182;4.474;2023-04-28T02:12:41;101118.13;;;9.98;59.64
72612;BME280;60655;52.182;4.474;2023-04-28T02:14:42;101117.72;;;10.01;58.92
72612;BME280;60655;52.182;4.474;2023-04-28T02:16:43;101110.16;;;9.98;59.83
72612;BME280;60655;52.182;4.474;2023-04-28T02:18:44;101104.22;;;9.89;59.10
72612;BME280;60655;52.182;4.474;2023-04-28T02:20:45;101108.91;;;9.87;59.26
72612;BME280;60655;52.182;4.474;2023-04-28T02:22:46;101111.56;;;9.94;59.51
72612;BME280;60655;52.182;4.474;2023-04-28T02:24:47;101110.16;;;9.98;59.08
72612;BME280;60655;52.182;4.474;2023-04-28T02:26:47;101110.56;;;10.01;58.45
72612;BME280;60655;52.182;4.474;2023-04-28T02:28:48;101100.56;;;9.97;59.23
72612;BME280;60655;52.182;4.474;2023-04-28T02:30:49;101093.41;;;9.97;58.64
72612;BME280;60655;52.182;4.474;2023-04-28T02:32:50;101090.56;;;9.92;58.66
72612;BME280;60655;52.182;4.474;2023-04-28T02:34:53;101090.34;;;9.94;58.89
72612;BME280;60655;52.182;4.474;2023-04-28T02:36:54;101089.53;;;10.00;58.80
72612;BME280;60655;52.182;4.474;2023-04-28T02:38:55;101090.16;;;10.02;58.47
72612;BME280;60655;52.182;4.474;2023-04-28T02:40:57;101087.69;;;10.00;58.73
72612;BME280;60655;52.182;4.474;2023-04-28T02:42:59;101085.25;;;9.99;57.75
72612;BME280;60655;52.182;4.474;2023-04-28T02:45:00;101093.63;;;10.02;58.43
72612;BME280;60655;52.182;4.474;2023-04-28T02:47:01;101091.97;;;10.08;59.30
72612;BME280;60655;52.182;4.474;2023-04-28T02:49:02;101085.66;;;10.09;58.70
72612;BME280;60655;52.182;4.474;2023-04-28T02:51:03;101086.03;;;10.12;58.41
72612;BME280;60655;52.182;4.474;2023-04-28T02:53:04;101077.69;;;10.09;57.81
72612;BME280;60655;52.182;4.474;2023-04-28T02:55:05;101070.94;;;10.06;58.25
72612;BME280;60655;52.182;4.474;2023-04-28T02:57:06;101067.91;;;9.96;58.51
72612;BME280;60655;52.182;4.474;2023-04-28T02:59:07;101068.50;;;9.98;58.88
72612;BME280;60655;52.182;4.474;2023-04-28T03:01:08;101058.91;;;10.04;58.52
72612;BME280;60655;52.182;4.474;2023-04-28T03:03:09;101056.47;;;9.96;58.30
72612;BME280;60655;52.182;4.474;2023-04-28T03:05:10;101064.00;;;9.92;58.05
72612;BME280;60655;52.182;4.474;2023-04-28T03:07:11;101057.28;;;9.96;59.15
72612;BME280;60655;52.182;4.474;2023-04-28T03:09:12;101048.72;;;9.88;58.26
72612;BME280;60655;52.182;4.474;2023-04-28T03:11:13;101038.91;;;9.88;58.35
72612;BME280;60655;52.182;4.474;2023-04-28T03:13:14;101050.75;;;9.86;58.47
72612;BME280;60655;52.182;4.474;2023-04-28T03:15:15;101037.28;;;9.87;58.43
72612;BME280;60655;52.182;4.474;2023-04-28T03:17:16;101029.94;;;9.89;58.67
72612;BME280;60655;52.182;4.474;2023-04-28T03:19:17;101033.84;;;9.80;58.20
72612;BME280;60655;52.182;4.474;2023-04-28T03:21:18;101028.09;;;9.83;58.32
72612;BME280;60655;52.182;4.474;2023-04-28T03:23:19;101019.56;;;9.81;58.81
72612;BME280;60655;52.182;4.474;2023-04-28T03:25:20;101019.34;;;9.76;58.80
72612;BME280;60655;52.182;4.474;2023-04-28T03:27:21;101021.59;;;9.79;59.35
72612;BME280;60655;52.182;4.474;2023-04-28T03:29:22;101014.03;;;9.76;59.44
72612;BME280;60655;52.182;4.474;2023-04-28T03:31:25;101020.56;;;9.80;59.23
72612;BME280;60655;52.182;4.474;2023-04-28T03:33:26;101017.50;;;9.70;60.07
72612;BME280;60655;52.182;4.474;2023-04-28T03:35:27;101012.41;;;9.81;59.22
72612;BME280;60655;52.182;4.474;2023-04-28T03:37:28;101002.22;;;9.78;58.71
72612;BME280;60655;52.182;4.474;2023-04-28T03:39:29;101004.41;;;9.88;58.91
72612;BME280;60655;52.182;4.474;2023-04-28T03:41:30;101003.44;;;9.76;58.68
72612;BME280;60655;52.182;4.474;2023-04-28T03:43:31;101000.13;;;9.87;59.24
72612;BME280;60655;52.182;4.474;2023-04-28T03:45:33;101004.63;;;9.87;58.71
72612;BME280;60655;52.182;4.474;2023-04-28T03:47:34;101004.63;;;9.87;58.21
72612;BME280;60655;52.182;4.474;2023-04-28T03:49:35;100998.69;;;9.85;58.61
72612;BME280;60655;52.182;4.474;2023-04-28T03:51:36;101003.00;;;9.86;59.08
72612;BME280;60655;52.182;4.474;2023-04-28T03:53:37;101009.31;;;9.91;58.71
72612;BME280;60655;52.182;4.474;2023-04-28T03:55:37;101003.00;;;9.86;58.58
72612;BME280;60655;52.182;4.474;2023-04-28T03:57:38;101000.94;;;9.88;59.32
72612;BME280;60655;52.182;4.474;2023-04-28T03:59:40;100996.44;;;9.95;58.87
72612;BME280;60655;52.182;4.474;2023-04-28T04:01:41;101004.00;;;9.91;58.96
72612;BME280;60655;52.182;4.474;2023-04-28T04:03:42;101006.44;;;9.93;59.66
72612;BME280;60655;52.182;4.474;2023-04-28T04:05:43;101003.81;;;9.93;59.44
72612;BME280;60655;52.182;4.474;2023-04-28T04:07:44;100988.47;;;9.95;59.29
72612;BME280;60655;52.182;4.474;2023-04-28T04:09:45;100998.06;;;10.02;61.16
72612;BME280;60655;52.182;4.474;2023-04-28T04:11:45;100987.66;;;10.07;58.83
72612;BME280;60655;52.182;4.474;2023-04-28T04:13:46;100992.97;;;10.07;59.74
72612;BME280;60655;52.182;4.474;2023-04-28T04:15:47;100996.84;;;10.05;59.60
72612;BME280;60655;52.182;4.474;2023-04-28T04:17:50;101000.72;;;10.02;58.74
72612;BME280;60655;52.182;4.474;2023-04-28T04:19:51;101001.56;;;9.96;59.43
72612;BME280;60655;52.182;4.474;2023-04-28T04:21:52;100997.66;;;9.99;60.09
72612;BME280;60655;52.182;4.474;2023-04-28T04:23:53;101001.53;;;10.09;59.75
72612;BME280;60655;52.182;4.474;2023-04-28T04:25:54;100987.06;;;9.99;59.58
72612;BME280;60655;52.182;4.474;2023-04-28T04:27:55;101008.28;;;10.05;60.13
72612;BME280;60655;52.182;4.474;2023-04-28T04:29:56;101006.44;;;9.99;60.28
72612;BME280;60655;52.182;4.474;2023-04-28T04:31:57;101008.09;;;9.94;61.20
72612;BME280;60655;52.182;4.474;2023-04-28T04:33:58;101008.88;;;10.01;61.30
72612;BME280;60655;52.182;4.474;2023-04-28T04:35:59;101003.59;;;10.01;61.68
72612;BME280;60655;52.182;4.474;2023-04-28T04:38:01;100999.69;;;10.03;60.61
72612;BME280;60655;52.182;4.474;2023-04-28T04:40:03;101002.34;;;10.03;61.36
72612;BME280;60655;52.182;4.474;2023-04-28T04:42:04;101006.78;;;10.16;60.98
72612;BME280;60655;52.182;4.474;2023-04-28T04:44:05;101001.34;;;10.04;61.72
72612;BME280;60655;52.182;4.474;2023-04-28T04:46:06;101001.53;;;10.09;60.71
72612;BME280;60655;52.182;4.474;2023-04-28T04:48:07;100990.31;;;10.07;62.16
72612;BME280;60655;52.182;4.474;2023-04-28T04:50:09;100959.91;;;9.97;66.01
72612;BME280;60655;52.182;4.474;2023-04-28T04:52:11;100969.31;;;9.93;68.48
72612;BME280;60655;52.182;4.474;2023-04-28T04:54:12;100962.38;;;9.85;70.28
72612;BME280;60655;52.182;4.474;2023-04-28T04:56:13;100935.91;;;9.65;71.10
72612;BME280;60655;52.182;4.474;2023-04-28T04:58:14;100937.72;;;9.65;72.52
72612;BME280;60655;52.182;4.474;2023-04-28T05:00:15;100935.75;;;9.47;72.98
72612;BME280;60655;52.182;4.474;2023-04-28T05:02:16;100914.94;;;9.37;73.38
72612;BME280;60655;52.182;4.474;2023-04-28T05:04:17;100919.84;;;9.27;74.83
72612;BME280;60655;52.182;4.474;2023-04-28T05:06:18;100912.31;;;9.11;75.61
72612;BME280;60655;52.182;4.474;2023-04-28T05:08:19;100905.16;;;8.98;76.39
72612;BME280;60655;52.182;4.474;2023-04-28T05:10:20;100908.22;;;9.02;77.55
72612;BME280;60655;52.182;4.474;2023-04-28T05:12:21;100904.34;;;8.85;76.31
72612;BME280;60655;52.182;4.474;2023-04-28T05:14:22;100903.97;;;8.88;77.61
72612;BME280;60655;52.182;4.474;2023-04-28T05:16:23;100904.34;;;8.85;77.84
72612;BME280;60655;52.182;4.474;2023-04-28T05:18:24;100906.00;;;8.92;77.78
72612;BME280;60655;52.182;4.474;2023-04-28T05:20:25;100900.09;;;8.90;77.62
72612;BME280;60655;52.182;4.474;2023-04-28T05:22:26;100894.56;;;8.98;76.93
72612;BME280;60655;52.182;4.474;2023-04-28T05:24:27;100892.53;;;8.87;77.89
72612;BME280;60655;52.182;4.474;2023-04-28T05:26:28;100913.31;;;9.03;76.59
72612;BME280;60655;52.182;4.474;2023-04-28T05:28:29;100915.97;;;9.10;76.54
72612;BME280;60655;52.182;4.474;2023-04-28T05:30:30;100924.34;;;9.20;76.21
72612;BME280;60655;52.182;4.474;2023-04-28T05:32:32;100923.94;;;9.10;75.49
72612;BME280;60655;52.182;4.474;2023-04-28T05:34:33;100928.41;;;9.09;75.95
72612;BME280;60655;52.182;4.474;2023-04-28T05:36:34;100925.56;;;9.18;76.35
72612;BME280;60655;52.182;4.474;2023-04-28T05:38:35;100925.16;;;9.21;76.85
72612;BME280;60655;52.182;4.474;2023-04-28T05:40:36;100920.44;;;9.29;77.17
72612;BME280;60655;52.182;4.474;2023-04-28T05:42:37;100925.34;;;9.26;76.48
72612;BME280;60655;52.182;4.474;2023-04-28T05:44:37;100927.38;;;9.37;76.68
72612;BME280;60655;52.182;4.474;2023-04-28T05:46:38;100930.84;;;9.31;76.06
72612;BME280;60655;52.182;4.474;2023-04-28T05:48:39;100933.50;;;9.37;76.44
72612;BME280;60655;52.182;4.474;2023-04-28T05:50:40;100932.88;;;9.48;76.10
72612;BME280;60655;52.182;4.474;2023-04-28T05:52:41;100935.94;;;9.45;75.76
72612;BME280;60655;52.182;4.474;2023-04-28T05:54:42;100936.56;;;9.47;77.02
72612;BME280;60655;52.182;4.474;2023-04-28T05:56:43;100941.84;;;9.47;75.21
72612;BME280;60655;52.182;4.474;2023-04-28T05:58:44;100948.78;;;9.48;76.27
72612;BME280;60655;52.182;4.474;2023-04-28T06:00:45;100940.19;;;9.53;75.96
72612;BME280;60655;52.182;4.474;2023-04-28T06:02:46;100937.13;;;9.63;75.59
72612;BME280;60655;52.182;4.474;2023-04-28T06:04:47;100939.16;;;9.61;75.79
72612;BME280;60655;52.182;4.474;2023-04-28T06:06:48;100927.75;;;9.54;75.61
72612;BME280;60655;52.182;4.474;2023-04-28T06:08:49;100936.50;;;9.61;75.89
72612;BME280;60655;52.182;4.474;2023-04-28T06:10:50;100926.72;;;9.68;76.27
72612;BME280;60655;52.182;4.474;2023-04-28T06:12:51;100927.94;;;9.65;76.73
72612;BME280;60655;52.182;4.474;2023-04-28T06:14:52;100925.63;;;9.82;76.71
72612;BME280;60655;52.182;4.474;2023-04-28T06:16:55;100932.16;;;9.86;76.15
72612;BME280;60655;52.182;4.474;2023-04-28T06:18:56;100912.97;;;9.91;76.06
72612;BME280;60655;52.182;4.474;2023-04-28T06:20:57;100918.75;;;9.74;76.63
72612;BME280;60655;52.182;4.474;2023-04-28T06:22:58;100924.41;;;9.85;77.30
72612;BME280;60655;52.182;4.474;2023-04-28T06:24:59;100912.13;;;10.03;77.07
72612;BME280;60655;52.182;4.474;2023-04-28T06:27:00;100907.03;;;9.95;77.40
72612;BME280;60655;52.182;4.474;2023-04-28T06:29:02;100902.94;;;9.99;77.90
72612;BME280;60655;52.182;4.474;2023-04-28T06:31:03;100906.00;;;10.03;77.81
72612;BME280;60655;52.182;4.474;2023-04-28T06:33:04;100909.84;;;10.07;77.73
72612;BME280;60655;52.182;4.474;2023-04-28T06:35:05;100911.09;;;10.04;78.36
72612;BME280;60655;52.182;4.474;2023-04-28T06:37:06;100907.41;;;10.05;78.82
72612;BME280;60655;52.182;4.474;2023-04-28T06:39:07;100913.28;;;10.21;78.89
72612;BME280;60655;52.182;4.474;2023-04-28T06:41:09;100907.97;;;10.14;78.16
72612;BME280;60655;52.182;4.474;2023-04-28T06:43:11;100903.25;;;10.16;78.32
72612;BME280;60655;52.182;4.474;2023-04-28T06:45:12;100902.66;;;10.14;78.24
72612;BME280;60655;52.182;4.474;2023-04-28T06:47:13;100910.63;;;10.21;78.95
72612;BME280;60655;52.182;4.474;2023-04-28T06:49:14;100912.25;;;10.22;78.83
72612;BME280;60655;52.182;4.474;2023-04-28T06:51:15;100912.03;;;10.16;79.04
72612;BME280;60655;52.182;4.474;2023-04-28T06:53:16;100909.59;;;10.22;78.95
72612;BME280;60655;52.182;4.474;2023-04-28T06:55:17;100903.28;;;10.23;78.97
72612;BME280;60655;52.182;4.474;2023-04-28T06:57:18;100902.47;;;10.22;79.53
72612;BME280;60655;52.182;4.474;2023-04-28T06:59:20;100908.16;;;10.26;78.81
72612;BME280;60655;52.182;4.474;2023-04-28T07:01:21;100908.97;;;10.26;79.23
72612;BME280;60655;52.182;4.474;2023-04-28T07:03:22;100906.34;;;10.20;79.83
72612;BME280;60655;52.182;4.474;2023-04-28T07:05:23;100917.97;;;10.19;79.68
72612;BME280;60655;52.182;4.474;2023-04-28T07:07:24;100909.59;;;10.22;80.75
72612;BME280;60655;52.182;4.474;2023-04-28T07:09:26;100910.00;;;10.25;81.07
72612;BME280;60655;52.182;4.474;2023-04-28T07:11:27;100916.72;;;10.28;81.21
72612;BME280;60655;52.182;4.474;2023-04-28T07:13:28;100905.53;;;10.19;82.28
72612;BME280;60655;52.182;4.474;2023-04-28T07:15:29;100912.25;;;10.22;82.40
72612;BME280;60655;52.182;4.474;2023-04-28T07:17:31;100920.22;;;10.22;82.44
72612;BME280;60655;52.182;4.474;2023-04-28T07:19:32;100910.19;;;10.30;82.55
72612;BME280;60655;52.182;4.474;2023-04-28T07:21:33;100899.59;;;10.24;82.33
72612;BME280;60655;52.182;4.474;2023-04-28T07:23:36;100886.31;;;10.17;81.92
72612;BME280;60655;52.182;4.474;2023-04-28T07:25:38;100887.72;;;10.26;82.14
72612;BME280;60655;52.182;4.474;2023-04-28T07:27:40;100898.97;;;10.28;83.13
72612;BME280;60655;52.182;4.474;2023-04-28T07:29:41;100902.72;;;10.45;82.59
72612;BME280;60655;52.182;4.474;2023-04-28T07:31:42;100891.69;;;10.48;82.60
72612;BME280;60655;52.182;4.474;2023-04-28T07:33:43;100896.34;;;10.53;82.08
72612;BME280;60655;52.182;4.474;2023-04-28T07:35:44;100902.69;;;10.52;82.87
72612;BME280;60655;52.182;4.474;2023-04-28T07:37:45;100903.31;;;10.54;82.56
72612;BME280;60655;52.182;4.474;2023-04-28T07:39:46;100909.28;;;10.43;83.00
72612;BME280;60655;52.182;4.474;2023-04-28T07:41:47;100909.50;;;10.41;83.11
72612;BME280;60655;52.182;4.474;2023-04-28T07:43:48;100913.16;;;10.47;82.61
72612;BME280;60655;52.182;4.474;2023-04-28T07:45:49;100912.13;;;10.48;83.17
72612;BME280;60655;52.182;4.474;2023-04-28T07:47:50;100908.63;;;10.54;83.60
72612;BME280;60655;52.182;4.474;2023-04-28T07:49:51;100901.81;;;10.65;83.32
72612;BME280;60655;52.182;4.474;2023-04-28T07:51:52;100906.69;;;10.68;83.41
72612;BME280;60655;52.182;4.474;2023-04-28T07:53:55;100902.13;;;10.75;83.67
72612;BME280;60655;52.182;4.474;2023-04-28T07:55:56;100895.78;;;10.76;83.91
72612;BME280;60655;52.182;4.474;2023-04-28T07:57:57;100897.59;;;10.82;83.54
72612;BME280;60655;52.182;4.474;2023-04-28T07:59:58;100899.84;;;10.78;84.11
72612;BME280;60655;52.182;4.474;2023-04-28T08:01:59;100901.88;;;10.83;84.45
72612;BME280;60655;52.182;4.474;2023-04-28T08:04:00;100898.97;;;10.91;84.28
72612;BME280;60655;52.182;4.474;2023-04-28T08:06:01;100889.63;;;10.82;84.72
72612;BME280;60655;52.182;4.474;2023-04-28T08:08:02;100900.72;;;10.97;84.90
72612;BME280;60655;52.182;4.474;2023-04-28T08:10:03;100910.31;;;10.98;84.87
72612;BME280;60655;52.182;4.474;2023-04-28T08:12:05;100902.88;;;10.89;85.68
72612;BME280;60655;52.182;4.474;2023-04-28T08:14:06;100909.38;;;10.93;86.17
72612;BME280;60655;52.182;4.474;2023-04-28T08:16:07;100905.69;;;10.94;86.21
72612;BME280;60655;52.182;4.474;2023-04-28T08:18:08;100893.91;;;10.83;86.34
72612;BME280;60655;52.182;4.474;2023-04-28T08:20:09;100900.25;;;11.07;86.40
72612;BME280;60655;52.182;4.474;2023-04-28T08:22:11;100899.66;;;11.05;85.97
72612;BME280;60655;52.182;4.474;2023-04-28T08:24:12;100900.41;;;11.12;86.12
72612;BME280;60655;52.182;4.474;2023-04-28T08:26:13;100900.84;;;11.09;86.67
72612;BME280;60655;52.182;4.474;2023-04-28T08:28:14;100896.03;;;11.24;86.82
72612;BME280;60655;52.182;4.474;2023-04-28T08:30:15;100896.16;;;11.29;87.59
72612;BME280;60655;52.182;4.474;2023-04-28T08:32:16;100899.94;;;11.22;88.30
72612;BME280;60655;52.182;4.474;2023-04-28T08:34:17;100897.88;;;11.24;88.74
72612;BME280;60655;52.182;4.474;2023-04-28T08:36:18;100891.63;;;11.11;89.84
72612;BME280;60655;52.182;4.474;2023-04-28T08:38:19;100890.09;;;11.22;90.11
72612;BME280;60655;52.182;4.474;2023-04-28T08:40:22;100888.56;;;11.33;90.36
72612;BME280;60655;52.182;4.474;2023-04-28T08:42:25;100873.84;;;11.30;90.69
72612;BME280;60655;52.182;4.474;2023-04-28T08:44:26;100880.84;;;11.49;90.65
72612;BME280;60655;52.182;4.474;2023-04-28T08:46:27;100877.72;;;11.53;90.76
72612;BME280;60655;52.182;4.474;2023-04-28T08:48:37;100885.13;;;11.50;90.94
72612;BME280;60655;52.182;4.474;2023-04-28T08:50:40;100881.03;;;11.66;90.89
72612;BME280;60655;52.182;4.474;2023-04-28T08:52:43;100872.69;;;11.63;91.06
72612;BME280;60655;52.182;4.474;2023-04-28T08:54:46;100889.25;;;11.65;91.38
72612;BME280;60655;52.182;4.474;2023-04-28T08:56:49;100882.91;;;11.66;91.39
72612;BME280;60655;52.182;4.474;2023-04-28T08:58:51;100883.50;;;11.68;91.55
72612;BME280;60655;52.182;4.474;2023-04-28T09:00:53;100885.44;;;11.79;91.43
72612;BME280;60655;52.182;4.474;2023-04-28T09:02:54;100884.03;;;11.76;91.64
72612;BME280;60655;52.182;4.474;2023-04-28T09:04:55;100876.81;;;11.83;92.20
72612;BME280;60655;52.182;4.474;2023-04-28T09:06:56;100876.47;;;11.92;92.09
72612;BME280;60655;52.182;4.474;2023-04-28T09:09:20;100883.06;;;11.89;92.41
72612;BME280;60655;52.182;4.474;2023-04-28T09:11:21;100874.56;;;11.99;92.48
72612;BME280;60655;52.182;4.474;2023-04-28T09:13:24;100873.66;;;12.05;92.13
72612;BME280;60655;52.182;4.474;2023-04-28T09:15:36;100875.00;;;11.96;92.41
72612;BME280;60655;52.182;4.474;2023-04-28T09:17:48;100878.31;;;11.91;93.16
72612;BME280;60655;52.182;4.474;2023-04-28T09:19:52;100866.56;;;11.99;93.22
72612;BME280;60655;52.182;4.474;2023-04-28T09:21:55;100867.16;;;12.01;93.04
72612;BME280;60655;52.182;4.474;2023-04-28T09:23:56;100866.78;;;11.97;93.74
72612;BME280;60655;52.182;4.474;2023-04-28T09:26:04;100860.72;;;12.08;93.47
72612;BME280;60655;52.182;4.474;2023-04-28T09:28:19;100863.50;;;12.13;93.65
72612;BME280;60655;52.182;4.474;2023-04-28T09:30:37;100854.81;;;12.18;93.99
72612;BME280;60655;52.182;4.474;2023-04-28T09:32:39;100866.75;;;12.15;94.10
72612;BME280;60655;52.182;4.474;2023-04-28T09:34:48;100856.91;;;12.16;94.57
72612;BME280;60655;52.182;4.474;2023-04-28T09:36:49;100857.63;;;12.23;94.72
72612;BME280;60655;52.182;4.474;2023-04-28T09:38:51;100853.56;;;12.21;94.71
72612;BME280;60655;52.182;4.474;2023-04-28T09:40:56;100863.25;;;12.33;94.82
72612;BME280;60655;52.182;4.474;2023-04-28T09:42:58;100855.84;;;12.47;94.58
72612;BME280;60655;52.182;4.474;2023-04-28T09:45:08;100852.50;;;12.40;94.54
72612;BME280;60655;52.182;4.474;2023-04-28T09:47:28;100853.53;;;12.50;94.77
72612;BME280;60655;52.182;4.474;2023-04-28T09:49:32;100851.34;;;12.47;94.90
72612;BME280;60655;52.182;4.474;2023-04-28T09:51:52;100854.03;;;12.59;94.37
72612;BME280;60655;52.182;4.474;2023-04-28T09:53:54;100855.66;;;12.60;94.55
72612;BME280;60655;52.182;4.474;2023-04-28T09:56:02;100861.00;;;12.60;94.91
72612;BME280;60655;52.182;4.474;2023-04-28T09:58:06;100856.69;;;12.71;94.03
72612;BME280;60655;52.182;4.474;2023-04-28T10:00:07;100855.91;;;12.70;94.00
72612;BME280;60655;52.182;4.474;2023-04-28T10:02:08;100856.16;;;12.80;93.95
72612;BME280;60655;52.182;4.474;2023-04-28T10:04:09;100858.13;;;12.85;94.17
72612;BME280;60655;52.182;4.474;2023-04-28T10:06:12;100856.16;;;12.80;94.41
72612;BME280;60655;52.182;4.474;2023-04-28T10:08:14;100852.31;;;12.76;94.86
72612;BME280;60655;52.182;4.474;2023-04-28T10:10:15;100863.72;;;12.95;94.30
72612;BME280;60655;52.182;4.474;2023-04-28T10:12:17;100855.09;;;12.81;94.50
72612;BME280;60655;52.182;4.474;2023-04-28T10:14:18;100860.91;;;12.90;94.97
72612;BME280;60655;52.182;4.474;2023-04-28T10:16:19;100859.28;;;12.77;95.35
72612;BME280;60655;52.182;4.474;2023-04-28T10:18:24;100861.59;;;12.85;95.16
72612;BME280;60655;52.182;4.474;2023-04-28T10:20:28;100866.72;;;12.87;95.64
72612;BME280;60655;52.182;4.474;2023-04-28T10:23:16;100872.13;;;12.80;96.12
72612;BME280;60655;52.182;4.474;2023-04-28T10:27:14;100873.66;;;13.00;95.62
72612;BME280;60655;52.182;4.474;2023-04-28T10:29:16;100878.06;;;13.06;95.31
72612;BME280;60655;52.182;4.474;2023-04-28T10:31:18;100869.03;;;13.07;95.13
72612;BME280;60655;52.182;4.474;2023-04-28T10:33:23;100877.13;;;13.00;95.68
72612;BME280;60655;52.182;4.474;2023-04-28T10:38:04;100880.97;;;12.93;96.68
72612;BME280;60655;52.182;4.474;2023-04-28T10:40:31;100884.81;;;12.97;97.17
72612;BME280;60655;52.182;4.474;2023-04-28T10:42:53;100883.66;;;12.93;97.56
72612;BME280;60655;52.182;4.474;2023-04-28T10:44:54;100877.59;;;12.85;97.50